Time;durP1;ratioP1;P1;durP2;ratioP2;P2;SDS_P1;SDS_P2;PMS_P1;PMS_P2;Temp;Humidity;BMP_temperature;BMP_pressure;BME280_temperature;BME280_humidity;BME280_pressure;Samples;Min_cycle;Max_cycle;Signal;HPM_P1;HPM_P2
2022/10/10 00:02:06;;;;;;;5.25;2.90;;;9.20;99.90;;;;;;5111927;27;20731;-72
2022/10/10 00:04:31;;;;;;;5.78;2.78;;;9.20;99.90;;;;;;5109906;27;20392;-72
2022/10/10 00:06:57;;;;;;;8.57;2.77;;;9.20;99.90;;;;;;5111374;27;20483;-72
2022/10/10 00:09:22;;;;;;;5.43;2.70;;;9.20;99.90;;;;;;5110958;28;20392;-72
2022/10/10 00:11:48;;;;;;;6.07;2.53;;;9.10;99.90;;;;;;5110962;27;20913;-72
2022/10/10 00:14:14;;;;;;;5.15;3.00;;;9.10;99.90;;;;;;5110200;28;20397;-72
2022/10/10 00:16:40;;;;;;;5.60;2.97;;;9.10;99.90;;;;;;5110549;27;20571;-72
2022/10/10 00:19:05;;;;;;;7.63;2.80;;;9.10;99.90;;;;;;5109638;28;20400;-72
2022/10/10 00:21:31;;;;;;;5.53;2.43;;;9.10;99.90;;;;;;5110487;28;20396;-72
2022/10/10 00:23:57;;;;;;;5.97;3.33;;;9.10;99.90;;;;;;5110440;27;21023;-72
2022/10/10 00:26:22;;;;;;;6.60;2.75;;;9.10;99.90;;;;;;5110806;27;20476;-73
2022/10/10 00:28:48;;;;;;;6.03;2.70;;;9.10;99.90;;;;;;5110142;28;20405;-73
2022/10/10 00:31:14;;;;;;;4.65;2.78;;;9.10;99.90;;;;;;5110979;27;20409;-72
2022/10/10 00:33:39;;;;;;;7.32;2.92;;;9.10;99.90;;;;;;5110942;27;20743;-72
2022/10/10 00:36:06;;;;;;;5.47;2.60;;;9.10;99.90;;;;;;5111142;27;20427;-72
2022/10/10 00:38:31;;;;;;;4.43;2.38;;;9.10;99.90;;;;;;5116637;27;20394;-73
2022/10/10 00:40:57;;;;;;;5.93;2.40;;;9.10;99.90;;;;;;5129378;27;20421;-72
2022/10/10 00:43:25;;;;;;;5.03;2.47;;;9.10;99.90;;;;;;5133964;27;20391;-72
2022/10/10 00:45:50;;;;;;;5.90;2.72;;;9.10;99.90;;;;;;5138375;27;20407;-72
2022/10/10 00:48:39;;;;;;;6.70;2.63;;;9.10;99.90;;;;;;5137578;27;20390;-72
2022/10/10 00:51:13;;;;;;;7.23;2.57;;;9.10;99.90;;;;;;5134718;27;20410;-72
2022/10/10 00:53:44;;;;;;;11.55;2.70;;;9.10;99.90;;;;;;5129951;27;20391;-73
2022/10/10 00:56:11;;;;;;;5.53;2.28;;;9.10;99.90;;;;;;5128499;27;20423;-72
2022/10/10 00:58:42;;;;;;;5.35;2.70;;;9.20;99.90;;;;;;5129101;27;20478;-72
2022/10/10 01:01:07;;;;;;;5.50;2.50;;;9.10;99.90;;;;;;5103724;27;20395;-73
2022/10/10 01:03:33;;;;;;;5.22;2.40;;;9.10;99.90;;;;;;5128718;27;20405;-72
2022/10/10 01:05:59;;;;;;;5.53;2.60;;;9.10;99.90;;;;;;5103877;27;20407;-73
2022/10/10 01:08:25;;;;;;;6.20;2.57;;;9.10;99.90;;;;;;5127278;27;20403;-72
2022/10/10 01:10:58;;;;;;;5.70;2.65;;;9.10;99.90;;;;;;5127730;27;20394;-72
2022/10/10 01:13:51;;;;;;;5.28;2.38;;;9.10;99.90;;;;;;5128792;27;20395;-73
2022/10/10 01:16:36;;;;;;;4.60;2.33;;;9.00;99.90;;;;;;5135673;27;20443;-72
2022/10/10 01:19:05;;;;;;;6.60;2.83;;;9.00;99.90;;;;;;5136484;27;20406;-72
2022/10/10 01:22:21;;;;;;;6.45;2.90;;;9.00;99.90;;;;;;5134207;27;20421;-72
2022/10/10 01:25:20;;;;;;;5.00;2.55;;;9.00;99.90;;;;;;5082786;28;20978;-72
2022/10/10 01:27:58;;;;;;;6.70;2.70;;;8.90;99.90;;;;;;5084249;28;20416;-72
2022/10/10 01:30:24;;;;;;;5.90;2.50;;;8.90;99.90;;;;;;5099624;27;20464;-72
2022/10/10 01:32:52;;;;;;;5.80;2.70;;;8.90;99.90;;;;;;5126237;27;20474;-72
2022/10/10 01:35:57;;;;;;;6.13;2.60;;;8.80;99.90;;;;;;5128478;27;20438;-72
2022/10/10 01:38:49;;;;;;;5.00;2.60;;;8.80;99.90;;;;;;5114800;27;20934;-72
2022/10/10 01:41:25;;;;;;;5.03;2.65;;;8.80;99.90;;;;;;5094991;27;20412;-72
2022/10/10 01:43:56;;;;;;;7.32;3.10;;;8.70;99.90;;;;;;5109039;28;20400;-72
2022/10/10 01:46:23;;;;;;;6.95;3.00;;;8.80;99.90;;;;;;5107973;27;20404;-72
2022/10/10 01:48:53;;;;;;;6.23;3.00;;;8.70;99.90;;;;;;5109158;28;20404;-72
2022/10/10 01:51:56;;;;;;;4.50;2.80;;;8.70;99.90;;;;;;5108774;27;20404;-72
2022/10/10 01:54:47;;;;;;;4.90;3.03;;;8.60;99.90;;;;;;5108170;28;20842;-72
2022/10/10 01:57:21;;;;;;;6.30;2.90;;;8.60;99.90;;;;;;5121854;27;20430;-72
2022/10/10 01:59:55;;;;;;;8.07;2.90;;;8.60;99.90;;;;;;5116736;27;20430;-72
2022/10/10 02:02:51;;;;;;;7.22;3.40;;;8.60;99.90;;;;;;5110183;27;20504;-73
2022/10/10 02:05:47;;;;;;;9.23;3.17;;;8.50;99.90;;;;;;5106625;28;20995;-72
2022/10/10 02:08:28;;;;;;;5.47;3.15;;;8.50;99.90;;;;;;5109359;27;20819;-72
2022/10/10 02:11:05;;;;;;;7.93;3.22;;;8.50;99.90;;;;;;5108472;27;20948;-72
2022/10/10 02:13:45;;;;;;;5.30;3.13;;;8.40;99.90;;;;;;5106271;28;20432;-72
2022/10/10 02:16:19;;;;;;;7.53;3.00;;;8.40;99.90;;;;;;5108402;28;20417;-72
2022/10/10 02:18:47;;;;;;;4.43;3.05;;;8.40;99.90;;;;;;5108041;28;20495;-72
2022/10/10 02:21:14;;;;;;;5.32;2.97;;;8.40;99.90;;;;;;5108349;27;20396;-72
2022/10/10 02:23:42;;;;;;;6.20;2.93;;;8.40;99.90;;;;;;5119504;27;20409;-72
2022/10/10 02:26:11;;;;;;;5.67;2.80;;;8.40;99.90;;;;;;5123248;27;20404;-72
2022/10/10 02:28:46;;;;;;;5.53;2.78;;;8.30;99.90;;;;;;5120237;27;20399;-72
2022/10/10 02:31:18;;;;;;;6.22;3.25;;;8.30;99.90;;;;;;5110688;27;20408;-72
2022/10/10 02:34:02;;;;;;;6.90;3.40;;;8.30;99.90;;;;;;5119253;27;20968;-72
2022/10/10 02:36:30;;;;;;;6.63;3.15;;;8.30;99.90;;;;;;5127343;27;20419;-73
2022/10/10 02:38:58;;;;;;;7.88;3.20;;;8.30;99.90;;;;;;5121954;27;20419;-73
2022/10/10 02:41:25;;;;;;;5.30;3.00;;;8.30;99.90;;;;;;5107392;28;20403;-72
2022/10/10 02:43:52;;;;;;;6.07;3.08;;;8.30;99.90;;;;;;5112011;27;20965;-72
2022/10/10 02:46:17;;;;;;;6.55;3.10;;;8.30;99.90;;;;;;5124294;27;20408;-72
2022/10/10 02:48:44;;;;;;;4.90;2.93;;;8.30;99.90;;;;;;5114482;27;20770;-72
2022/10/10 02:51:11;;;;;;;6.40;2.97;;;8.30;99.90;;;;;;5120861;27;20400;-72
2022/10/10 02:53:37;;;;;;;5.38;2.90;;;8.30;99.90;;;;;;5121110;28;20406;-72
2022/10/10 02:56:04;;;;;;;6.03;2.70;;;8.30;99.90;;;;;;5107640;28;20400;-72
2022/10/10 02:58:29;;;;;;;7.18;3.20;;;8.30;99.90;;;;;;5107909;28;20403;-72
2022/10/10 03:00:55;;;;;;;6.63;3.25;;;8.30;99.90;;;;;;5108271;28;20396;-72
2022/10/10 03:03:20;;;;;;;5.53;3.07;;;8.20;99.90;;;;;;5107065;28;20396;-72
2022/10/10 03:05:46;;;;;;;4.95;2.75;;;8.20;99.90;;;;;;5107309;28;20389;-72
2022/10/10 03:08:12;;;;;;;4.97;2.97;;;8.30;99.90;;;;;;5119172;28;20398;-72
2022/10/10 03:10:37;;;;;;;5.78;3.00;;;8.20;99.90;;;;;;5114168;27;20858;-72
2022/10/10 03:13:03;;;;;;;7.27;3.13;;;8.20;99.90;;;;;;5124076;27;20410;-72
2022/10/10 03:15:29;;;;;;;4.80;2.88;;;8.20;99.90;;;;;;5108259;28;20484;-72
2022/10/10 03:17:54;;;;;;;5.60;3.00;;;8.20;99.90;;;;;;5115264;27;20435;-72
2022/10/10 03:20:20;;;;;;;5.40;2.88;;;8.20;99.90;;;;;;5111634;27;20396;-72
2022/10/10 03:22:45;;;;;;;6.67;3.17;;;8.20;99.90;;;;;;5117005;27;20402;-72
2022/10/10 03:25:11;;;;;;;6.10;3.25;;;8.10;99.90;;;;;;5121526;27;20451;-72
2022/10/10 03:27:37;;;;;;;7.07;3.43;;;8.20;99.90;;;;;;5111777;28;20940;-72
2022/10/10 03:30:04;;;;;;;5.75;3.22;;;8.10;99.90;;;;;;5111592;27;20861;-72
2022/10/10 03:32:30;;;;;;;6.20;3.28;;;8.10;99.90;;;;;;5111724;28;20404;-72
2022/10/10 03:34:55;;;;;;;6.15;3.47;;;8.10;99.90;;;;;;5111068;27;20392;-72
2022/10/10 03:37:21;;;;;;;7.90;3.93;;;8.10;99.90;;;;;;5124757;27;20909;-72
2022/10/10 03:39:46;;;;;;;5.97;3.55;;;8.10;99.90;;;;;;5122367;27;20395;-72
2022/10/10 03:42:12;;;;;;;5.43;3.23;;;8.10;99.90;;;;;;5131551;27;20390;-72
2022/10/10 03:44:38;;;;;;;6.80;4.10;;;8.10;99.90;;;;;;5131767;27;20423;-72
2022/10/10 03:47:03;;;;;;;9.03;3.73;;;8.10;99.90;;;;;;5130389;27;20939;-72
2022/10/10 03:49:29;;;;;;;8.85;3.80;;;8.10;99.90;;;;;;5131191;27;20414;-72
2022/10/10 03:51:55;;;;;;;6.07;3.53;;;8.00;99.90;;;;;;5120257;27;20422;-72
2022/10/10 03:54:20;;;;;;;5.95;3.72;;;8.00;99.90;;;;;;5111200;27;20871;-72
2022/10/10 03:56:46;;;;;;;6.27;3.60;;;8.00;99.90;;;;;;5109625;27;20432;-72
2022/10/10 03:59:11;;;;;;;5.50;3.90;;;8.00;99.90;;;;;;5111153;27;20409;-72
2022/10/10 04:01:37;;;;;;;5.43;3.53;;;8.00;99.90;;;;;;5111656;27;20392;-72
2022/10/10 04:04:04;;;;;;;7.05;3.85;;;7.90;99.90;;;;;;5111991;27;20400;-72
2022/10/10 04:06:29;;;;;;;9.63;3.80;;;7.90;99.90;;;;;;5111463;28;20762;-72
2022/10/10 04:08:55;;;;;;;7.30;4.15;;;7.90;99.90;;;;;;5111125;27;20399;-72
2022/10/10 04:11:21;;;;;;;6.60;3.83;;;7.90;99.90;;;;;;5111804;27;20538;-72
2022/10/10 04:13:46;;;;;;;10.00;4.50;;;7.90;99.90;;;;;;5110966;27;20484;-72
2022/10/10 04:16:12;;;;;;;8.70;4.72;;;7.90;99.90;;;;;;5111338;27;20420;-72
2022/10/10 04:18:38;;;;;;;6.72;3.80;;;7.90;99.90;;;;;;5111787;27;20434;-72
2022/10/10 04:21:05;;;;;;;5.60;3.80;;;7.90;99.90;;;;;;5110855;27;20431;-72
2022/10/10 04:23:31;;;;;;;7.35;4.18;;;7.80;99.90;;;;;;5111570;27;20835;-72
2022/10/10 04:25:57;;;;;;;9.18;4.05;;;7.90;99.90;;;;;;5119055;27;20439;-72
2022/10/10 04:28:22;;;;;;;7.15;3.75;;;7.80;99.90;;;;;;5129888;27;20438;-72
2022/10/10 04:30:50;;;;;;;7.43;4.65;;;7.80;99.90;;;;;;5129187;27;21279;-73
2022/10/10 04:33:16;;;;;;;5.35;3.85;;;7.80;99.90;;;;;;5121596;27;20392;-73
2022/10/10 04:35:42;;;;;;;7.45;4.25;;;7.80;99.90;;;;;;5130558;27;20987;-73
2022/10/10 04:38:07;;;;;;;8.03;4.40;;;7.80;99.90;;;;;;5115332;27;20429;-73
2022/10/10 04:40:35;;;;;;;8.30;4.28;;;7.70;99.90;;;;;;5123688;27;20457;-73
2022/10/10 04:43:01;;;;;;;8.00;4.30;;;7.70;99.90;;;;;;5120817;27;20399;-73
2022/10/10 04:45:27;;;;;;;7.33;4.37;;;7.70;99.90;;;;;;5129612;27;20398;-73
2022/10/10 04:47:55;;;;;;;6.43;4.43;;;7.70;99.90;;;;;;5129562;27;20402;-73
2022/10/10 04:50:21;;;;;;;6.07;4.35;;;7.70;99.90;;;;;;5129783;27;20402;-73
2022/10/10 04:52:47;;;;;;;7.53;4.30;;;7.70;99.90;;;;;;5130263;27;20802;-73
2022/10/10 04:55:13;;;;;;;7.33;4.33;;;7.60;99.90;;;;;;5116989;27;20418;-74
2022/10/10 04:57:39;;;;;;;9.18;4.30;;;7.70;99.90;;;;;;5128855;27;20438;-73
2022/10/10 05:00:05;;;;;;;7.23;4.13;;;7.60;99.90;;;;;;5122832;27;20422;-73
2022/10/10 05:02:31;;;;;;;7.18;4.55;;;7.60;99.90;;;;;;5116242;27;20406;-74
2022/10/10 05:04:57;;;;;;;7.20;4.55;;;7.60;99.90;;;;;;5129725;27;20468;-74
2022/10/10 05:07:23;;;;;;;8.23;4.70;;;7.60;99.90;;;;;;5129384;27;20391;-73
2022/10/10 05:09:48;;;;;;;7.15;4.30;;;7.60;99.90;;;;;;5118673;27;20981;-73
2022/10/10 05:12:14;;;;;;;6.65;4.50;;;7.60;99.90;;;;;;5109190;28;20399;-73
2022/10/10 05:14:40;;;;;;;5.90;4.43;;;7.60;99.90;;;;;;5120379;27;20430;-73
2022/10/10 05:17:05;;;;;;;8.80;4.60;;;7.60;99.90;;;;;;5110785;27;20426;-72
2022/10/10 05:19:31;;;;;;;6.65;4.10;;;7.60;99.90;;;;;;5129277;27;20398;-73
2022/10/10 05:21:56;;;;;;;7.83;4.53;;;7.60;99.90;;;;;;5128637;27;20395;-74
2022/10/10 05:24:22;;;;;;;6.85;4.40;;;7.60;99.90;;;;;;5129296;27;20410;-73
2022/10/10 05:26:48;;;;;;;9.00;4.63;;;7.50;99.90;;;;;;5129222;27;20406;-73
2022/10/10 05:29:13;;;;;;;8.00;4.95;;;7.50;99.90;;;;;;5118935;27;20396;-73
2022/10/10 05:31:39;;;;;;;9.97;4.97;;;7.50;99.90;;;;;;5122460;27;20417;-73
2022/10/10 05:34:04;;;;;;;6.78;4.50;;;7.50;99.90;;;;;;5119466;27;20391;-72
2022/10/10 05:36:30;;;;;;;10.13;5.13;;;7.50;99.90;;;;;;5112955;27;20743;-71
2022/10/10 05:38:56;;;;;;;7.80;4.95;;;7.50;99.90;;;;;;5104138;28;20420;-72
2022/10/10 05:41:22;;;;;;;9.07;4.63;;;7.50;99.90;;;;;;5104628;28;21337;-72
2022/10/10 05:43:48;;;;;;;7.83;5.00;;;7.50;99.90;;;;;;5106541;28;20432;-72
2022/10/10 05:46:14;;;;;;;8.17;5.07;;;7.50;99.90;;;;;;5105618;28;20501;-72
2022/10/10 05:48:39;;;;;;;7.25;4.80;;;7.50;99.90;;;;;;5109839;27;20409;-72
2022/10/10 05:51:05;;;;;;;8.13;5.10;;;7.50;99.90;;;;;;5107017;27;20416;-74
2022/10/10 05:53:31;;;;;;;9.98;4.30;;;7.50;99.90;;;;;;5109944;27;20833;-74
2022/10/10 05:56:00;;;;;;;8.82;4.90;;;7.50;99.90;;;;;;5109007;27;20472;-73
2022/10/10 05:58:25;;;;;;;8.27;5.00;;;7.50;99.90;;;;;;5107103;28;20413;-73
2022/10/10 06:00:51;;;;;;;8.37;4.80;;;7.60;99.90;;;;;;5109521;27;20412;-72
2022/10/10 06:03:17;;;;;;;12.38;5.32;;;7.60;99.90;;;;;;5108808;27;20493;-72
2022/10/10 06:05:44;;;;;;;9.47;5.63;;;7.50;99.90;;;;;;5109658;27;20893;-72
2022/10/10 06:08:10;;;;;;;9.77;5.18;;;7.60;99.90;;;;;;5105762;28;20826;-72
2022/10/10 06:10:38;;;;;;;7.78;4.90;;;7.60;99.90;;;;;;5109593;27;20416;-73
2022/10/10 06:13:03;;;;;;;8.20;5.20;;;7.60;99.90;;;;;;5114349;27;20434;-73
2022/10/10 06:15:29;;;;;;;9.07;5.10;;;7.60;99.90;;;;;;5124586;27;20414;-72
2022/10/10 06:17:55;;;;;;;8.43;4.97;;;7.60;99.90;;;;;;5115676;27;20446;-73
2022/10/10 06:20:21;;;;;;;8.83;5.10;;;7.60;99.90;;;;;;5121790;27;20443;-73
2022/10/10 06:22:46;;;;;;;8.75;5.13;;;7.70;99.90;;;;;;5117731;27;20938;-72
2022/10/10 06:25:12;;;;;;;8.73;5.17;;;7.60;99.90;;;;;;5123492;27;20447;-73
2022/10/10 06:27:38;;;;;;;10.23;5.28;;;7.70;99.90;;;;;;5113979;27;20481;-72
2022/10/10 06:30:04;;;;;;;8.03;5.20;;;7.70;99.90;;;;;;5127689;27;20399;-73
2022/10/10 06:32:30;;;;;;;8.85;5.35;;;7.70;99.90;;;;;;5128262;27;20402;-73
2022/10/10 06:34:56;;;;;;;9.10;5.18;;;7.70;99.90;;;;;;5120515;27;20396;-72
2022/10/10 06:37:21;;;;;;;8.63;5.33;;;7.70;99.90;;;;;;5108654;27;20428;-73
2022/10/10 06:39:47;;;;;;;7.78;5.25;;;7.70;99.90;;;;;;5110734;27;20488;-73
2022/10/10 06:42:12;;;;;;;8.63;5.37;;;7.80;99.90;;;;;;5113873;27;20795;-73
2022/10/10 06:44:38;;;;;;;8.77;5.40;;;7.80;99.90;;;;;;5120872;27;20459;-74
2022/10/10 06:47:04;;;;;;;9.87;5.43;;;7.80;99.90;;;;;;5104318;28;20484;-73
2022/10/10 06:49:29;;;;;;;9.30;5.50;;;7.80;99.90;;;;;;5113454;28;20420;-73
2022/10/10 06:51:55;;;;;;;8.00;4.85;;;7.90;99.90;;;;;;5118438;28;20469;-74
2022/10/10 06:54:21;;;;;;;10.40;5.77;;;7.90;99.90;;;;;;5112112;28;20427;-74
2022/10/10 06:56:46;;;;;;;9.65;5.47;;;7.90;99.90;;;;;;5116887;28;20417;-74
2022/10/10 06:59:12;;;;;;;9.87;5.90;;;7.90;99.90;;;;;;5110298;28;20448;-73
2022/10/10 07:01:37;;;;;;;9.95;6.00;;;8.00;99.90;;;;;;5113348;27;20786;-73
2022/10/10 07:04:04;;;;;;;11.97;5.90;;;8.00;99.90;;;;;;5112629;28;20424;-73
2022/10/10 07:06:30;;;;;;;9.02;6.00;;;8.00;99.90;;;;;;5109766;28;21016;-72
2022/10/10 07:08:57;;;;;;;9.73;5.72;;;8.10;99.90;;;;;;5112264;28;20404;-72
2022/10/10 07:11:24;;;;;;;9.55;6.13;;;8.20;99.90;;;;;;5123977;28;20456;-73
2022/10/10 07:13:51;;;;;;;9.57;6.05;;;8.20;99.90;;;;;;5110235;27;21187;-73
2022/10/10 07:16:17;;;;;;;10.20;6.35;;;8.30;99.90;;;;;;5103065;28;20450;-73
2022/10/10 07:18:42;;;;;;;9.63;6.30;;;8.30;99.90;;;;;;5103853;28;20956;-73
2022/10/10 07:21:08;;;;;;;10.03;5.97;;;8.40;99.90;;;;;;5108061;28;20483;-72
2022/10/10 07:23:35;;;;;;;10.10;6.50;;;8.40;99.90;;;;;;5112188;28;20408;-72
2022/10/10 07:26:04;;;;;;;11.82;6.53;;;8.50;99.90;;;;;;5117604;28;20403;-73
2022/10/10 07:28:31;;;;;;;9.30;6.38;;;8.50;99.90;;;;;;5118104;28;21236;-74
2022/10/10 07:31:08;;;;;;;10.00;6.65;;;8.60;99.90;;;;;;5117204;28;20469;-74
2022/10/10 07:33:42;;;;;;;10.55;6.50;;;8.70;99.90;;;;;;5109082;28;20416;-73
2022/10/10 07:36:08;;;;;;;9.10;6.43;;;8.80;99.90;;;;;;5107753;28;20400;-72
2022/10/10 07:38:35;;;;;;;11.50;6.73;;;8.80;99.90;;;;;;5107296;28;20427;-72
2022/10/10 07:41:05;;;;;;;8.90;6.50;;;8.90;99.90;;;;;;5107663;28;20400;-73
2022/10/10 07:43:30;;;;;;;10.40;6.30;;;8.90;99.90;;;;;;5093240;28;20432;-72
2022/10/10 07:45:56;;;;;;;9.83;6.17;;;9.00;99.90;;;;;;5107343;28;20971;-73
2022/10/10 07:48:21;;;;;;;9.45;5.80;;;9.10;99.90;;;;;;5114653;27;20404;-73
2022/10/10 07:50:47;;;;;;;10.10;6.53;;;9.20;99.90;;;;;;5104850;28;20418;-73
2022/10/10 07:53:13;;;;;;;8.63;5.63;;;9.20;99.90;;;;;;5115030;28;20410;-73
2022/10/10 07:55:43;;;;;;;9.50;5.73;;;9.30;99.90;;;;;;5107718;28;20404;-74
2022/10/10 07:58:09;;;;;;;8.05;5.53;;;9.30;99.90;;;;;;5106434;28;20943;-74
2022/10/10 08:00:36;;;;;;;10.00;6.53;;;9.40;99.90;;;;;;5106674;28;20400;-75
2022/10/10 08:03:02;;;;;;;11.75;5.85;;;9.50;99.90;;;;;;5107098;28;20426;-74
2022/10/10 08:05:28;;;;;;;11.07;5.95;;;9.60;99.90;;;;;;5110144;28;21030;-73
2022/10/10 08:07:54;;;;;;;14.02;6.32;;;9.60;99.90;;;;;;5111606;28;20482;-73
2022/10/10 08:10:19;;;;;;;11.37;5.93;;;9.60;99.90;;;;;;5108126;28;20417;-73
2022/10/10 08:12:45;;;;;;;10.35;6.18;;;9.60;99.90;;;;;;5116721;27;20904;-73
2022/10/10 08:15:11;;;;;;;9.83;5.90;;;9.70;99.90;;;;;;5110577;28;20966;-73
2022/10/10 08:17:37;;;;;;;9.50;5.85;;;9.80;99.90;;;;;;5108794;28;20436;-73
2022/10/10 08:20:03;;;;;;;10.00;6.00;;;9.90;99.90;;;;;;5111381;28;20412;-73
2022/10/10 08:22:29;;;;;;;7.72;6.20;;;10.00;99.90;;;;;;5111251;28;20404;-73
2022/10/10 08:24:55;;;;;;;11.13;6.33;;;10.10;99.90;;;;;;5110386;28;20438;-72
2022/10/10 08:27:21;;;;;;;10.35;6.30;;;10.10;99.90;;;;;;5110393;28;20424;-72
2022/10/10 08:29:46;;;;;;;8.63;6.30;;;10.30;99.90;;;;;;5110942;28;20541;-73
2022/10/10 08:32:12;;;;;;;10.63;6.27;;;10.30;99.90;;;;;;5110025;28;20515;-74
2022/10/10 08:34:38;;;;;;;9.75;6.10;;;10.40;99.90;;;;;;5108602;28;20917;-73
2022/10/10 08:37:03;;;;;;;10.50;6.40;;;10.40;99.90;;;;;;5110874;28;20921;-73
2022/10/10 08:39:29;;;;;;;10.13;6.38;;;10.50;99.90;;;;;;5107982;28;20882;-73
2022/10/10 08:42:00;;;;;;;10.90;6.53;;;10.60;99.90;;;;;;5105316;28;20408;-73
2022/10/10 08:44:38;;;;;;;9.98;6.75;;;10.60;99.90;;;;;;5110860;28;20408;-73
2022/10/10 08:47:37;;;;;;;10.03;6.47;;;10.80;99.90;;;;;;5105907;28;20428;-73
2022/10/10 08:50:38;;;;;;;8.88;6.43;;;10.90;99.90;;;;;;5099116;28;20416;-73
2022/10/10 08:53:40;;;;;;;9.18;6.00;;;11.10;99.90;;;;;;5069232;28;20440;-73
2022/10/10 08:56:09;;;;;;;9.75;6.57;;;11.30;99.90;;;;;;5109959;28;20404;-72
2022/10/10 08:58:37;;;;;;;10.77;6.20;;;11.30;99.90;;;;;;5110660;28;20481;-72
2022/10/10 09:01:06;;;;;;;12.88;6.63;;;11.50;99.90;;;;;;5107857;28;20413;-72
2022/10/10 09:03:56;;;;;;;11.63;6.28;;;11.90;99.90;;;;;;5109682;27;20423;-73
2022/10/10 09:07:00;;;;;;;10.02;5.75;;;12.60;99.90;;;;;;5100891;27;20431;-73
2022/10/10 09:09:45;;;;;;;8.75;5.93;;;13.60;99.90;;;;;;5104758;28;20914;-73
2022/10/10 09:12:28;;;;;;;8.73;4.93;;;14.80;99.90;;;;;;5106879;28;20537;-73
2022/10/10 09:15:40;;;;;;;9.70;4.80;;;15.70;99.90;;;;;;5107932;28;20409;-73
2022/10/10 09:18:24;;;;;;;7.15;4.57;;;16.60;99.90;;;;;;5100863;27;20437;-73
2022/10/10 09:21:16;;;;;;;8.37;4.67;;;17.30;99.90;;;;;;5108511;27;20742;-73
2022/10/10 09:23:49;;;;;;;9.18;4.70;;;17.80;99.90;;;;;;5112725;27;20532;-73
2022/10/10 09:26:32;;;;;;;8.23;5.05;;;18.10;99.90;;;;;;5108215;28;20405;-73
2022/10/10 09:29:20;;;;;;;7.10;4.63;;;18.40;99.90;;;;;;5108473;28;20400;-74
2022/10/10 09:31:57;;;;;;;8.25;4.80;;;18.40;99.90;;;;;;5105473;28;20916;-73
2022/10/10 09:34:55;;;;;;;8.27;4.22;;;18.40;99.90;;;;;;5107911;28;20388;-74
2022/10/10 09:37:27;;;;;;;8.77;4.93;;;18.60;99.90;;;;;;5102338;28;20508;-73
2022/10/10 09:40:13;;;;;;;8.25;4.40;;;19.00;99.90;;;;;;5110842;27;20479;-73
2022/10/10 09:42:42;;;;;;;9.17;4.63;;;19.60;99.90;;;;;;5114147;27;20401;-73
2022/10/10 09:45:40;;;;;;;8.32;4.82;;;19.90;99.60;;;;;;5114270;27;20391;-73
2022/10/10 09:48:08;;;;;;;8.25;4.32;;;20.00;98.60;;;;;;5100351;28;20419;-73
2022/10/10 09:50:34;;;;;;;7.70;4.50;;;20.00;98.90;;;;;;5109709;28;20475;-73
2022/10/10 09:52:59;;;;;;;7.68;4.43;;;20.20;98.60;;;;;;5112869;27;20474;-73
2022/10/10 09:55:39;;;;;;;8.27;4.50;;;20.20;98.30;;;;;;5107508;27;20418;-73
2022/10/10 09:58:19;;;;;;;8.27;4.70;;;20.00;97.00;;;;;;5118117;27;20426;-73
2022/10/10 10:00:45;;;;;;;7.65;5.07;;;19.60;97.50;;;;;;5108773;28;20401;-73
2022/10/10 10:03:20;;;;;;;7.63;4.87;;;19.20;97.60;;;;;;5107411;28;20901;-73
2022/10/10 10:05:58;;;;;;;10.88;4.90;;;19.00;98.20;;;;;;5106160;28;20413;-73
2022/10/10 10:08:26;;;;;;;7.53;4.70;;;18.80;98.30;;;;;;5118961;27;20410;-73
2022/10/10 10:10:56;;;;;;;9.52;4.78;;;18.70;98.60;;;;;;5108560;28;20496;-73
2022/10/10 10:13:29;;;;;;;7.80;4.93;;;18.70;98.90;;;;;;5104271;28;20496;-73
2022/10/10 10:16:08;;;;;;;7.03;4.60;;;19.00;98.70;;;;;;5108043;28;20423;-73
2022/10/10 10:18:45;;;;;;;7.85;5.00;;;19.10;98.80;;;;;;5108781;28;20774;-73
2022/10/10 10:21:18;;;;;;;7.47;4.80;;;19.40;98.10;;;;;;5114419;27;20410;-73
2022/10/10 10:23:50;;;;;;;8.10;4.72;;;19.90;97.90;;;;;;5110165;27;20532;-73
2022/10/10 10:26:18;;;;;;;8.67;5.00;;;20.30;97.60;;;;;;5110039;27;20499;-73
2022/10/10 10:28:45;;;;;;;8.73;4.63;;;20.70;96.10;;;;;;5106719;28;20921;-73
2022/10/10 10:31:20;;;;;;;8.05;4.68;;;20.90;96.60;;;;;;5102043;28;20403;-73
2022/10/10 10:33:55;;;;;;;8.35;4.55;;;21.10;96.30;;;;;;5103456;28;20446;-73
2022/10/10 10:36:27;;;;;;;7.57;4.23;;;21.20;96.00;;;;;;5106395;28;20411;-73
2022/10/10 10:39:05;;;;;;;8.57;4.60;;;21.40;95.70;;;;;;5106579;28;20404;-73
2022/10/10 10:41:53;;;;;;;8.60;4.47;;;21.60;95.20;;;;;;5113823;27;20404;-74
2022/10/10 10:44:19;;;;;;;8.50;4.57;;;21.80;94.80;;;;;;5105610;28;21006;-73
2022/10/10 10:47:08;;;;;;;7.30;4.83;;;21.70;94.30;;;;;;5114992;27;20428;-73
2022/10/10 10:50:02;;;;;;;7.57;4.60;;;21.50;94.50;;;;;;5116106;27;20510;-73
2022/10/10 10:52:55;;;;;;;7.78;4.30;;;21.50;94.30;;;;;;5102969;27;20488;-72
2022/10/10 10:55:44;;;;;;;8.85;4.90;;;21.40;94.30;;;;;;5114334;27;20416;-73
2022/10/10 10:58:25;;;;;;;7.55;4.25;;;21.00;93.40;;;;;;5104387;27;20935;-73
2022/10/10 11:00:56;;;;;;;6.67;4.23;;;21.50;94.70;;;;;;5123682;27;20418;-73
2022/10/10 11:04:01;;;;;;;7.88;4.28;;;22.00;93.70;;;;;;5117248;27;20420;-72
2022/10/10 11:07:14;;;;;;;6.25;4.25;;;21.80;93.50;;;;;;5100670;28;20403;-72
2022/10/10 11:09:56;;;;;;;6.50;4.47;;;21.60;94.00;;;;;;5082883;28;20471;-72
2022/10/10 11:12:42;;;;;;;6.22;4.03;;;22.30;94.30;;;;;;5104366;28;20423;-73
2022/10/10 11:15:26;;;;;;;8.85;4.20;;;22.50;92.70;;;;;;5123062;27;20399;-73
2022/10/10 11:18:02;;;;;;;8.60;4.35;;;22.00;92.70;;;;;;5117782;27;20427;-72
2022/10/10 11:20:37;;;;;;;7.53;3.77;;;21.70;93.20;;;;;;5117488;28;20419;-72
2022/10/10 11:23:24;;;;;;;7.57;4.15;;;21.50;93.40;;;;;;5101257;28;20870;-72
2022/10/10 11:25:55;;;;;;;5.70;3.70;;;21.40;93.50;;;;;;5105614;28;21167;-73
2022/10/10 11:28:31;;;;;;;6.10;3.47;;;21.20;93.00;;;;;;5106076;28;20400;-72
2022/10/10 11:31:04;;;;;;;10.07;3.50;;;20.80;93.50;;;;;;5104894;28;20463;-73
2022/10/10 11:33:39;;;;;;;6.63;3.50;;;20.40;93.90;;;;;;5108071;28;20412;-73
2022/10/10 11:36:19;;;;;;;6.65;3.80;;;20.10;94.00;;;;;;5110558;27;20431;-73
2022/10/10 11:39:19;;;;;;;7.05;3.65;;;19.60;94.20;;;;;;5116846;27;20970;-73
2022/10/10 11:42:19;;;;;;;6.30;3.73;;;19.30;94.80;;;;;;5109222;28;20466;-73
2022/10/10 11:44:54;;;;;;;8.18;3.80;;;18.90;95.30;;;;;;5106875;28;20424;-73
2022/10/10 11:47:23;;;;;;;7.82;3.80;;;18.70;95.80;;;;;;5121809;27;20422;-73
2022/10/10 11:49:57;;;;;;;5.63;3.58;;;18.40;95.90;;;;;;5126433;27;20399;-73
2022/10/10 11:52:52;;;;;;;7.33;3.43;;;18.10;96.30;;;;;;5116580;27;20400;-72
2022/10/10 11:55:25;;;;;;;8.23;3.80;;;17.80;96.60;;;;;;5110396;28;20473;-73
2022/10/10 11:58:06;;;;;;;7.07;3.70;;;17.60;97.00;;;;;;5115286;27;20422;-71
2022/10/10 12:00:55;;;;;;;7.70;4.00;;;17.50;97.40;;;;;;5107526;27;20501;-72
2022/10/10 12:03:24;;;;;;;7.15;3.83;;;17.30;97.80;;;;;;5119368;27;20485;-71
2022/10/10 12:06:13;;;;;;;8.40;3.80;;;17.10;98.30;;;;;;5093853;28;20416;-71
2022/10/10 12:08:45;;;;;;;9.77;4.10;;;17.00;98.60;;;;;;5106541;28;20906;-72
2022/10/10 12:11:42;;;;;;;8.43;3.95;;;16.80;98.90;;;;;;5100566;28;20934;-72
2022/10/10 12:14:12;;;;;;;8.03;4.00;;;16.70;99.20;;;;;;5124542;27;20762;-72
2022/10/10 12:16:38;;;;;;;8.90;4.20;;;16.60;99.70;;;;;;5114355;27;20918;-72
2022/10/10 12:19:06;;;;;;;6.73;3.93;;;16.50;99.90;;;;;;5115279;27;20394;-73
2022/10/10 12:21:50;;;;;;;8.13;3.70;;;16.40;99.90;;;;;;5126010;27;20407;-72
2022/10/10 12:24:16;;;;;;;8.68;4.18;;;16.40;99.90;;;;;;5092699;28;20853;-72
2022/10/10 12:26:53;;;;;;;7.53;3.90;;;16.30;99.90;;;;;;5123952;27;20484;-73
2022/10/10 12:29:39;;;;;;;7.20;4.20;;;16.20;99.90;;;;;;5122470;27;20398;-72
2022/10/10 12:32:26;;;;;;;8.40;4.47;;;16.20;99.90;;;;;;5106909;27;20426;-73
2022/10/10 12:34:52;;;;;;;9.95;4.45;;;16.10;99.90;;;;;;5112989;27;20403;-73
2022/10/10 12:37:30;;;;;;;10.70;4.67;;;16.10;99.90;;;;;;5110932;27;20425;-72
2022/10/10 12:40:04;;;;;;;8.57;5.05;;;16.00;99.90;;;;;;5110599;28;20396;-73
2022/10/10 12:42:50;;;;;;;8.30;4.50;;;16.00;99.90;;;;;;5110919;28;20408;-72
2022/10/10 12:45:27;;;;;;;8.23;5.00;;;16.00;99.90;;;;;;5097862;28;21300;-72
2022/10/10 12:48:01;;;;;;;10.05;5.85;;;15.90;99.90;;;;;;5109956;28;20534;-73
2022/10/10 12:50:34;;;;;;;10.27;5.63;;;15.90;99.90;;;;;;5108599;28;20397;-73
2022/10/10 12:53:22;;;;;;;9.95;6.00;;;15.80;99.90;;;;;;5110134;28;20408;-73
2022/10/10 12:55:51;;;;;;;11.00;5.97;;;15.70;99.90;;;;;;5110499;28;20416;-72
2022/10/10 12:58:25;;;;;;;10.23;6.30;;;15.70;99.90;;;;;;5110707;27;20420;-73
2022/10/10 13:00:52;;;;;;;11.40;6.80;;;15.60;99.90;;;;;;5109650;28;20408;-72
2022/10/10 13:03:26;;;;;;;11.70;6.40;;;15.50;99.90;;;;;;5110190;28;20436;-73
2022/10/10 13:05:52;;;;;;;11.45;6.50;;;15.40;99.90;;;;;;5109352;27;20446;-72
2022/10/10 13:08:26;;;;;;;11.07;6.93;;;15.40;99.90;;;;;;5109525;28;20890;-73
2022/10/10 13:11:11;;;;;;;14.05;7.57;;;15.30;99.90;;;;;;5109299;27;20404;-73
2022/10/10 13:13:38;;;;;;;11.07;7.63;;;15.30;99.90;;;;;;5111433;27;20426;-73
2022/10/10 13:16:13;;;;;;;13.43;7.27;;;15.20;99.90;;;;;;5109789;27;20831;-73
2022/10/10 13:18:41;;;;;;;11.13;7.90;;;15.20;99.90;;;;;;5110574;27;20432;-73